createdAt,value
2024-03-02T00:00:53.235Z,94458.78
2024-03-02T00:03:21.646Z,94458.78
2024-03-02T00:05:53.608Z,94457.44
2024-03-02T00:08:27.863Z,94454.16
2024-03-02T00:11:00.126Z,94449.34
2024-03-02T00:13:28.473Z,94457.13
2024-03-02T00:15:57.756Z,94450.13
2024-03-02T00:18:29.024Z,94448.03
2024-03-02T00:20:58.358Z,94443.72
2024-03-02T00:23:31.874Z,94435.38
2024-03-02T00:26:01.154Z,94441.28
2024-03-02T00:28:31.441Z,94444.19
2024-03-02T00:31:01.174Z,94433.22
2024-03-02T00:33:32.760Z,94432.69
2024-03-02T00:36:01.907Z,94433.78
2024-03-02T00:38:31.497Z,94433.78
2024-03-02T00:41:01.057Z,94434.03
2024-03-02T00:43:47.289Z,94425.19
2024-03-02T00:46:18.562Z,94430.28
2024-03-02T00:49:06.075Z,94428.66
2024-03-02T00:51:36.914Z,94424.63
2024-03-02T00:54:07.761Z,94425.16
2024-03-02T00:56:36.858Z,94420.56
2024-03-02T00:59:04.842Z,94422.16
2024-03-02T01:01:32.809Z,94413.28
2024-03-02T01:04:00.778Z,94424.03
2024-03-02T01:06:28.876Z,94417.84
2024-03-02T01:08:56.644Z,94422.66
2024-03-02T01:11:25.905Z,94423.19
2024-03-02T01:13:54.285Z,94427.50
2024-03-02T01:16:22.453Z,94418.91
2024-03-02T01:18:50.520Z,94418.91
2024-03-02T01:21:18.522Z,94418.38
2024-03-02T01:23:46.344Z,94424.03
2024-03-02T01:26:16.244Z,94420.81
2024-03-02T01:28:45.347Z,94421.09
2024-03-02T01:31:13.130Z,94422.47
2024-03-02T01:33:40.964Z,94426.47
2024-03-02T01:36:09.745Z,94421.09
2024-03-02T01:38:37.589Z,94422.16
2024-03-02T01:41:05.595Z,94421.34
2024-03-02T01:43:33.362Z,94420.56
2024-03-02T01:46:02.646Z,94421.66
2024-03-02T01:48:32.879Z,94427.84
2024-03-02T01:51:00.663Z,94417.38
2024-03-02T01:53:29.463Z,94421.94
2024-03-02T01:55:57.283Z,94413.34
2024-03-02T01:58:25.045Z,94407.44
2024-03-02T02:00:52.995Z,94409.31
2024-03-02T02:03:22.233Z,94409.31
2024-03-02T02:05:50.033Z,94403.94
2024-03-02T02:08:17.851Z,94394.28
2024-03-02T02:10:45.900Z,94392.41
2024-03-02T02:13:16.797Z,94390.81
2024-03-02T02:15:44.702Z,94386.22
2024-03-02T02:18:12.515Z,94392.69
2024-03-02T02:20:41.772Z,94379.78
2024-03-02T02:23:11.471Z,94381.41
2024-03-02T02:25:39.347Z,94380.59
2024-03-02T02:28:13.041Z,94375.47
2024-03-02T02:30:40.886Z,94370.38
2024-03-02T02:33:08.764Z,94385.16
2024-03-02T02:35:36.796Z,94381.38
2024-03-02T02:38:05.326Z,94377.34
2024-03-02T02:40:34.493Z,94378.13
2024-03-02T02:43:02.313Z,94377.34
2024-03-02T02:45:30.147Z,94376.25
2024-03-02T02:47:57.961Z,94373.84
2024-03-02T02:50:25.838Z,94378.94
2024-03-02T02:52:53.600Z,94381.63
2024-03-02T02:55:21.455Z,94375.97
2024-03-02T02:57:50.728Z,94380.28
2024-03-02T03:00:21.359Z,94384.56
2024-03-02T03:02:51.933Z,94383.50
2024-03-02T03:05:20.330Z,94386.19
2024-03-02T03:07:50.964Z,94389.66
2024-03-02T03:10:19.829Z,94392.88
2024-03-02T03:12:47.917Z,94396.88
2024-03-02T03:15:18.308Z,94396.31
2024-03-02T03:17:47.349Z,94393.88
2024-03-02T03:20:16.571Z,94393.34
2024-03-02T03:22:44.734Z,94398.44
2024-03-02T03:25:12.579Z,94399.47
2024-03-02T03:27:40.401Z,94397.31
2024-03-02T03:30:09.526Z,94401.84
2024-03-02T03:32:38.693Z,94398.06
2024-03-02T03:35:07.704Z,94400.50
2024-03-02T03:37:36.141Z,94403.97
2024-03-02T03:40:04.120Z,94399.97
2024-03-02T03:42:32.044Z,94398.63
2024-03-02T03:45:00.032Z,94407.25
2024-03-02T03:47:27.828Z,94407.03
2024-03-02T03:49:59.628Z,94409.72
2024-03-02T03:52:27.514Z,94404.91
2024-03-02T03:54:55.325Z,94413.53
2024-03-02T03:57:26.032Z,94408.94
2024-03-02T03:59:54.013Z,94410.31
2024-03-02T04:02:21.840Z,94404.84
2024-03-02T04:04:49.637Z,94412.97
2024-03-02T04:07:19.199Z,94410.03
2024-03-02T04:09:47.040Z,94405.53
2024-03-02T04:12:15.158Z,94407.63
2024-03-02T04:14:43.957Z,94408.72
2024-03-02T04:17:11.851Z,94409.56
2024-03-02T04:19:39.688Z,94412.53
2024-03-02T04:22:15.284Z,94417.66
2024-03-02T04:24:48.256Z,94419.00
2024-03-02T04:27:16.075Z,94415.50
2024-03-02T04:29:43.942Z,94419.53
2024-03-02T04:32:11.738Z,94422.22
2024-03-02T04:34:39.543Z,94420.06
2024-03-02T04:37:08.032Z,94423.25
2024-03-02T04:39:37.028Z,94423.81
2024-03-02T04:42:06.873Z,94421.41
2024-03-02T04:44:34.692Z,94423.56
2024-03-02T04:47:02.966Z,94428.41
2024-03-02T04:49:31.302Z,94433.16
2024-03-02T04:51:59.359Z,94434.03
2024-03-02T04:54:27.477Z,94435.66
2024-03-02T04:56:55.270Z,94438.28
2024-03-02T04:59:24.373Z,94444.19
2024-03-02T05:01:52.193Z,94441.56
2024-03-02T05:04:19.992Z,94453.94
2024-03-02T05:06:53.813Z,94452.34
2024-03-02T05:09:21.905Z,94455.84
2024-03-02T05:12:10.812Z,94457.16
2024-03-02T05:14:40.576Z,94455.50
2024-03-02T05:17:08.424Z,94458.19
2024-03-02T05:19:36.230Z,94458.72
2024-03-02T05:22:04.366Z,94459.31
2024-03-02T05:24:32.311Z,94452.59
2024-03-02T05:27:00.764Z,94452.06
2024-03-02T05:29:28.554Z,94451.53
2024-03-02T05:31:57.756Z,94460.97
2024-03-02T05:34:25.631Z,94453.16
2024-03-02T05:36:53.498Z,94452.69
2024-03-02T05:39:21.472Z,94449.72
2024-03-02T05:41:49.250Z,94446.50
2024-03-02T05:44:17.442Z,94447.59
2024-03-02T05:46:45.418Z,94455.94
2024-03-02T05:49:14.552Z,94455.38
2024-03-02T05:51:42.749Z,94462.09
2024-03-02T05:54:10.548Z,94458.84
2024-03-02T05:56:39.321Z,94455.88
2024-03-02T05:59:13.905Z,94459.09
2024-03-02T06:01:42.158Z,94460.41
2024-03-02T06:04:10.096Z,94464.19
2024-03-02T06:06:39.790Z,94466.59
2024-03-02T06:09:09.417Z,94458.25
2024-03-02T06:11:37.608Z,94459.31
2024-03-02T06:14:05.718Z,94463.84
2024-03-02T06:16:33.525Z,94458.19
2024-03-02T06:19:01.748Z,94467.81
2024-03-02T06:21:30.109Z,94472.13
2024-03-02T06:23:59.287Z,94468.38
2024-03-02T06:26:27.067Z,94467.59
2024-03-02T06:28:54.876Z,94471.38
2024-03-02T06:31:22.732Z,94467.13
2024-03-02T06:33:50.644Z,94465.53
2024-03-02T06:36:18.495Z,94463.13
2024-03-02T06:38:46.336Z,94469.63
2024-03-02T06:41:15.485Z,94461.00
2024-03-02T06:43:43.243Z,94462.91
2024-03-02T06:46:11.399Z,94453.78
2024-03-02T06:48:39.282Z,94458.34
2024-03-02T06:51:07.160Z,94463.47
2024-03-02T06:53:35.750Z,94463.72
2024-03-02T06:56:03.579Z,94470.44
2024-03-02T06:58:33.724Z,94470.19
2024-03-02T07:01:01.774Z,94465.63
2024-03-02T07:03:29.848Z,94463.72
2024-03-02T07:05:58.465Z,94457.03
2024-03-02T07:08:26.456Z,94447.06
2024-03-02T07:10:54.267Z,94461.03
2024-03-02T07:13:22.424Z,94469.91
2024-03-02T07:16:16.789Z,94468.03
2024-03-02T07:18:52.310Z,94465.34
2024-03-02T07:21:20.280Z,94470.19
2024-03-02T07:23:51.043Z,94463.19
2024-03-02T07:28:51.122Z,94468.84
2024-03-02T07:31:20.274Z,94464.25
2024-03-02T07:33:48.512Z,94474.75
2024-03-02T07:36:20.775Z,94477.69
2024-03-02T07:38:51.380Z,94473.66
2024-03-02T07:41:19.164Z,94470.66
2024-03-02T07:43:47.066Z,94481.38
2024-03-02T07:46:15.536Z,94478.09
2024-03-02T07:48:45.597Z,94474.56
2024-03-02T07:51:15.897Z,94487.66
2024-03-02T07:53:44.530Z,94480.00
2024-03-02T07:56:13.130Z,94481.81
2024-03-02T07:58:41.985Z,94485.72
2024-03-02T08:01:09.917Z,94481.59
2024-03-02T08:03:37.902Z,94484.69
2024-03-02T08:06:07.407Z,94487.00
2024-03-02T08:08:35.228Z,94487.13
2024-03-02T08:11:03.043Z,94491.09
2024-03-02T08:13:30.905Z,94491.09
2024-03-02T08:15:58.874Z,94490.47
2024-03-02T08:18:26.975Z,94486.50
2024-03-02T08:20:54.845Z,94483.41
2024-03-02T08:23:24.068Z,94485.56
2024-03-02T08:25:51.962Z,94475.84
2024-03-02T08:28:20.153Z,94479.13
2024-03-02T08:30:48.082Z,94481.38
2024-03-02T08:33:15.984Z,94480.97
2024-03-02T08:35:43.856Z,94481.16
2024-03-02T08:38:11.678Z,94480.47
2024-03-02T08:40:40.838Z,94476.13
2024-03-02T08:43:09.262Z,94475.59
2024-03-02T08:45:37.110Z,94470.41
2024-03-02T08:48:05.805Z,94482.66
2024-03-02T08:50:33.695Z,94479.31
2024-03-02T08:53:01.458Z,94474.94
2024-03-02T08:55:29.458Z,94470.44
2024-03-02T08:57:58.723Z,94466.25
2024-03-02T09:00:27.266Z,94464.03
2024-03-02T09:02:55.090Z,94452.06
2024-03-02T09:05:22.846Z,94456.56
2024-03-02T09:07:51.566Z,94452.75
2024-03-02T09:10:19.406Z,94460.03
2024-03-02T09:12:47.193Z,94459.19
2024-03-02T09:15:16.629Z,94457.28
2024-03-02T09:17:44.404Z,94450.38
2024-03-02T09:20:13.386Z,94456.09
2024-03-02T09:22:41.230Z,94450.97
2024-03-02T09:25:10.064Z,94452.81
2024-03-02T09:27:38.918Z,94443.00
2024-03-02T09:30:09.697Z,94441.28
2024-03-02T09:32:39.852Z,94437.13
2024-03-02T09:35:08.256Z,94437.75
2024-03-02T09:37:36.043Z,94433.78
2024-03-02T09:40:04.131Z,94438.72
2024-03-02T09:42:33.464Z,94431.34
2024-03-02T09:45:01.358Z,94430.88
2024-03-02T09:47:29.198Z,94427.66
2024-03-02T09:49:58.767Z,94426.72
2024-03-02T09:52:26.566Z,94422.72
2024-03-02T09:54:54.558Z,94418.41
2024-03-02T09:57:22.516Z,94420.97
2024-03-02T09:59:50.289Z,94419.47
2024-03-02T10:02:17.997Z,94418.84
2024-03-02T10:04:46.097Z,94416.16
2024-03-02T10:07:16.890Z,94407.56
2024-03-02T10:09:46.256Z,94402.94
2024-03-02T10:12:16.001Z,94403.56
2024-03-02T10:14:44.863Z,94405.88
2024-03-02T10:17:14.415Z,94397.63
2024-03-02T10:19:42.433Z,94400.84
2024-03-02T10:22:11.778Z,94393.31
2024-03-02T10:24:42.059Z,94392.44
2024-03-02T10:27:11.382Z,94385.59
2024-03-02T10:29:40.951Z,94392.97
2024-03-02T10:32:12.228Z,94385.91
2024-03-02T10:34:41.725Z,94378.25
2024-03-02T10:37:09.685Z,94379.84
2024-03-02T10:39:37.892Z,94377.63
2024-03-02T10:42:08.248Z,94379.22
2024-03-02T10:44:36.614Z,94368.34
2024-03-02T10:47:06.751Z,94359.09
2024-03-02T10:49:35.392Z,94351.34
2024-03-02T10:52:03.613Z,94351.66
2024-03-02T10:54:37.607Z,94350.84
2024-03-02T10:57:10.798Z,94342.34
2024-03-02T10:59:42.593Z,94338.97
2024-03-02T11:02:14.443Z,94342.72
2024-03-02T11:04:44.226Z,94334.28
2024-03-02T11:07:13.599Z,94327.44
2024-03-02T11:09:45.530Z,94323.84
2024-03-02T11:12:21.465Z,94318.78
2024-03-02T11:14:49.323Z,94313.13
2024-03-02T11:17:18.823Z,94308.22
2024-03-02T11:19:47.506Z,94301.53
2024-03-02T11:22:16.972Z,94293.97
2024-03-02T11:24:49.458Z,94285.00
2024-03-02T11:27:57.415Z,94285.88
2024-03-02T11:30:54.281Z,94286.09
2024-03-02T11:33:28.557Z,94276.97
2024-03-02T11:35:57.977Z,94270.41
2024-03-02T11:38:30.095Z,94265.91
2024-03-02T11:40:58.503Z,94268.81
2024-03-02T11:43:34.219Z,94265.66
2024-03-02T11:46:05.474Z,94256.88
2024-03-02T11:48:34.188Z,94246.66
2024-03-02T11:51:03.122Z,94250.00
2024-03-02T11:53:35.530Z,94240.75
2024-03-02T11:56:04.451Z,94239.31
2024-03-02T11:58:34.663Z,94242.75
2024-03-02T12:01:03.741Z,94237.44
2024-03-02T12:03:31.641Z,94238.56
2024-03-02T12:06:01.515Z,94231.56
2024-03-02T12:08:29.871Z,94231.66
2024-03-02T12:10:58.890Z,94231.91
2024-03-02T12:13:26.954Z,94218.47
2024-03-02T12:15:58.217Z,94216.25
2024-03-02T12:18:26.878Z,94222.16
2024-03-02T12:20:58.540Z,94221.03
2024-03-02T12:23:27.432Z,94204.06
2024-03-02T12:25:55.591Z,94201.72
2024-03-02T12:28:23.582Z,94206.69
2024-03-02T12:30:51.888Z,94191.00
2024-03-02T12:33:22.547Z,94192.59
2024-03-02T12:35:51.521Z,94196.31
2024-03-02T12:38:19.396Z,94192.44
2024-03-02T12:40:49.583Z,94185.66
2024-03-02T12:43:17.434Z,94179.84
2024-03-02T12:45:45.305Z,94173.66
2024-03-02T12:48:13.200Z,94168.91
2024-03-02T12:50:42.582Z,94166.56
2024-03-02T12:53:16.930Z,94156.25
2024-03-02T12:55:45.685Z,94156.03
2024-03-02T12:58:19.213Z,94143.03
2024-03-02T13:00:47.230Z,94145.75
2024-03-02T13:03:16.338Z,94147.44
2024-03-02T13:05:50.870Z,94143.34
2024-03-02T13:08:18.935Z,94136.34
2024-03-02T13:10:46.941Z,94134.94
2024-03-02T13:13:16.003Z,94138.16
2024-03-02T13:15:44.337Z,94135.22
2024-03-02T13:18:13.118Z,94130.22
2024-03-02T13:20:41.164Z,94134.72
2024-03-02T13:23:11.367Z,94133.13
2024-03-02T13:25:39.141Z,94129.22
2024-03-02T13:28:07.804Z,94125.44
2024-03-02T13:30:35.744Z,94124.44
2024-03-02T13:33:03.555Z,94119.31
2024-03-02T13:35:33.331Z,94114.47
2024-03-02T13:38:01.089Z,94108.19
2024-03-02T13:40:32.599Z,94116.88
2024-03-02T13:43:00.660Z,94112.91
2024-03-02T13:45:29.056Z,94116.94
2024-03-02T13:47:57.365Z,94106.53
2024-03-02T13:50:25.366Z,94106.81
2024-03-02T13:52:53.240Z,94105.38
2024-03-02T13:55:21.305Z,94111.16
2024-03-02T13:57:51.292Z,94116.34
2024-03-02T14:00:20.177Z,94115.31
2024-03-02T14:02:50.636Z,94111.22
2024-03-02T14:05:18.520Z,94108.19
2024-03-02T14:07:46.290Z,94103.69
2024-03-02T14:10:14.806Z,94094.75
2024-03-02T14:12:43.509Z,94097.44
2024-03-02T14:15:13.265Z,94089.44
2024-03-02T14:17:41.200Z,94086.38
2024-03-02T14:20:11.478Z,94079.13
2024-03-02T14:22:39.498Z,94088.25
2024-03-02T14:25:07.903Z,94081.09
2024-03-02T14:27:50.863Z,94082.09
2024-03-02T14:30:26.232Z,94076.66
2024-03-02T14:32:54.373Z,94073.72
2024-03-02T14:35:23.908Z,94066.56
2024-03-02T14:37:54.087Z,94069.88
2024-03-02T14:40:22.967Z,94071.59
2024-03-02T14:42:50.875Z,94061.94
2024-03-02T14:45:18.833Z,94063.84
2024-03-02T14:47:48.392Z,94064.41
2024-03-02T14:50:17.850Z,94071.38
2024-03-02T14:52:47.678Z,94071.72
2024-03-02T14:55:15.754Z,94065.75
2024-03-02T14:57:44.457Z,94067.34
2024-03-02T15:00:13.350Z,94071.53
2024-03-02T15:02:41.252Z,94067.28
2024-03-02T15:05:11.151Z,94065.16
2024-03-02T15:07:39.740Z,94062.53
2024-03-02T15:10:09.576Z,94069.16
2024-03-02T15:12:38.863Z,94064.78
2024-03-02T15:15:07.846Z,94058.47
2024-03-02T15:17:35.820Z,94058.69
2024-03-02T15:20:05.629Z,94052.09
2024-03-02T15:22:34.893Z,94058.72
2024-03-02T15:25:02.743Z,94056.44
2024-03-02T15:27:30.635Z,94045.47
2024-03-02T15:29:58.927Z,94054.31
2024-03-02T15:32:27.809Z,94056.94
2024-03-02T15:34:55.769Z,94057.50
2024-03-02T15:37:23.742Z,94055.13
2024-03-02T15:39:53.020Z,94061.69
2024-03-02T15:42:24.410Z,94058.28
2024-03-02T15:44:52.226Z,94052.25
2024-03-02T15:47:20.057Z,94056.13
2024-03-02T15:49:47.891Z,94054.19
2024-03-02T15:52:19.345Z,94055.41
2024-03-02T15:54:47.359Z,94060.72
2024-03-02T15:57:17.464Z,94061.66
2024-03-02T15:59:45.542Z,94063.88
2024-03-02T16:02:13.463Z,94063.63
2024-03-02T16:04:41.292Z,94058.84
2024-03-02T16:07:09.445Z,94059.75
2024-03-02T16:09:37.454Z,94061.06
2024-03-02T16:12:06.177Z,94048.69
2024-03-02T16:14:36.559Z,94053.00
2024-03-02T16:17:06.536Z,94055.66
2024-03-02T16:19:35.371Z,94046.78
2024-03-02T16:22:03.331Z,94057.28
2024-03-02T16:24:31.343Z,94057.66
2024-03-02T16:26:59.183Z,94049.44
2024-03-02T16:29:26.977Z,94050.94
2024-03-02T16:31:57.262Z,94052.78
2024-03-02T16:34:25.104Z,94045.94
2024-03-02T16:36:53.014Z,94047.72
2024-03-02T16:39:20.836Z,94057.56
2024-03-02T16:41:48.757Z,94053.63
2024-03-02T16:44:16.567Z,94057.34
2024-03-02T16:46:46.251Z,94058.69
2024-03-02T16:49:15.603Z,94061.41
2024-03-02T16:51:44.465Z,94072.09
2024-03-02T16:54:12.553Z,94067.31
2024-03-02T16:56:41.268Z,94070.22
2024-03-02T16:59:09.170Z,94066.41
2024-03-02T17:01:37.302Z,94072.16
2024-03-02T17:04:07.550Z,94075.97
2024-03-02T17:06:37.182Z,94078.84
2024-03-02T17:09:05.279Z,94080.28
2024-03-02T17:11:33.140Z,94078.16
2024-03-02T17:14:01.144Z,94072.75
2024-03-02T17:16:29.047Z,94081.97
2024-03-02T17:18:56.977Z,94082.31
2024-03-02T17:21:24.815Z,94092.47
2024-03-02T17:23:54.037Z,94090.72
2024-03-02T17:26:22.145Z,94086.56
2024-03-02T17:28:49.959Z,94088.94
2024-03-02T17:31:17.800Z,94089.06
2024-03-02T17:33:47.514Z,94085.38
2024-03-02T17:36:15.519Z,94085.34
2024-03-02T17:38:43.609Z,94091.38
2024-03-02T17:41:12.751Z,94086.28
2024-03-02T17:43:41.352Z,94083.72
2024-03-02T17:46:09.279Z,94091.50
2024-03-02T17:48:37.166Z,94086.53
2024-03-02T17:51:08.488Z,94089.81
2024-03-02T17:53:36.292Z,94096.78
2024-03-02T17:56:04.476Z,94098.91
2024-03-02T17:58:34.668Z,94098.88
2024-03-02T18:01:02.747Z,94098.19
2024-03-02T18:03:30.736Z,94095.59
2024-03-02T18:05:58.524Z,94100.47
2024-03-02T18:08:26.440Z,94097.09
2024-03-02T18:10:54.282Z,94099.75
2024-03-02T18:13:22.114Z,94113.47
2024-03-02T18:15:51.866Z,94107.53
2024-03-02T18:18:19.893Z,94104.72
2024-03-02T18:20:47.778Z,94101.66
2024-03-02T18:23:15.617Z,94099.38
2024-03-02T18:25:47.389Z,94092.78
2024-03-02T18:28:15.494Z,94093.69
2024-03-02T18:30:43.396Z,94103.22
2024-03-02T18:33:12.578Z,94097.41
2024-03-02T18:35:40.513Z,94100.41
2024-03-02T18:38:08.324Z,94104.63
2024-03-02T18:40:36.231Z,94104.22
2024-03-02T18:43:07.367Z,94097.66
2024-03-02T18:45:35.456Z,94097.53
2024-03-02T18:48:04.723Z,94099.72
2024-03-02T18:50:34.112Z,94103.84
2024-03-02T18:53:02.025Z,94109.34
2024-03-02T18:55:29.820Z,94092.16
2024-03-02T18:57:58.297Z,94093.75
2024-03-02T19:00:26.244Z,94099.53
2024-03-02T19:02:54.201Z,94097.44
2024-03-02T19:05:22.015Z,94099.81
2024-03-02T19:07:51.477Z,94096.53
2024-03-02T19:10:19.235Z,94088.09
2024-03-02T19:12:48.809Z,94091.28
2024-03-02T19:15:18.948Z,94094.16
2024-03-02T19:17:49.634Z,94098.13
2024-03-02T19:20:18.569Z,94098.78
2024-03-02T19:22:46.356Z,94103.50
2024-03-02T19:25:15.911Z,94100.69
2024-03-02T19:27:43.948Z,94104.03
2024-03-02T19:30:12.890Z,94103.63
2024-03-02T19:32:41.750Z,94102.19
2024-03-02T19:35:10.196Z,94106.31
2024-03-02T19:37:39.264Z,94107.84
2024-03-02T19:40:09.673Z,94099.38
2024-03-02T19:42:38.963Z,94087.16
2024-03-02T19:45:07.646Z,94089.47
2024-03-02T19:47:36.205Z,94085.53
2024-03-02T19:50:05.530Z,94083.19
2024-03-02T19:52:33.611Z,94084.91
2024-03-02T19:55:06.298Z,94079.38
2024-03-02T19:57:36.977Z,94084.56
2024-03-02T20:00:07.882Z,94085.66
2024-03-02T20:02:35.835Z,94078.16
2024-03-02T20:05:05.200Z,94083.13
2024-03-02T20:07:33.110Z,94073.50
2024-03-02T20:10:01.016Z,94079.78
2024-03-02T20:12:29.092Z,94073.13
2024-03-02T20:14:56.892Z,94074.84
2024-03-02T20:17:26.135Z,94078.63
2024-03-02T20:19:54.736Z,94074.94
2024-03-02T20:22:22.463Z,94068.31
2024-03-02T20:24:52.270Z,94074.25
2024-03-02T20:27:20.912Z,94060.84
2024-03-02T20:29:48.773Z,94066.28
2024-03-02T20:32:18.761Z,94062.84
2024-03-02T20:34:47.932Z,94063.16
2024-03-02T20:37:15.896Z,94059.75
2024-03-02T20:39:43.786Z,94056.09
2024-03-02T20:42:11.551Z,94056.13
2024-03-02T20:44:39.348Z,94057.75
2024-03-02T20:47:07.132Z,94047.31
2024-03-02T20:49:34.936Z,94041.22
2024-03-02T20:52:04.277Z,94034.78
2024-03-02T20:54:32.155Z,94045.00
2024-03-02T20:57:00.242Z,94046.81
2024-03-02T20:59:28.457Z,94037.19
2024-03-02T21:01:56.202Z,94028.91
2024-03-02T21:04:24.142Z,94028.66
2024-03-02T21:06:52.182Z,94027.06
2024-03-02T21:09:21.427Z,94024.38
2024-03-02T21:11:49.849Z,94033.00
2024-03-02T21:14:17.615Z,94031.66
2024-03-02T21:16:45.355Z,94024.16
2024-03-02T21:19:13.726Z,94037.78
2024-03-02T21:21:43.543Z,94035.38
2024-03-02T21:24:11.356Z,94026.31
2024-03-02T21:26:44.440Z,94018.81
2024-03-02T21:29:12.941Z,94024.72
2024-03-02T21:31:41.204Z,94018.78
2024-03-02T21:34:09.041Z,94022.84
2024-03-02T21:36:38.280Z,94014.63
2024-03-02T21:39:06.335Z,94012.78
2024-03-02T21:41:34.251Z,94015.53
2024-03-02T21:44:03.484Z,94013.13
2024-03-02T21:46:31.190Z,94006.16
2024-03-02T21:49:00.124Z,94002.13
2024-03-02T21:51:28.234Z,93996.78
2024-03-02T21:53:57.123Z,94000.50
2024-03-02T21:56:24.894Z,93999.66
2024-03-02T21:58:53.087Z,93998.38
2024-03-02T22:01:22.360Z,93998.66
2024-03-02T22:03:50.334Z,93993.06
2024-03-02T22:06:18.167Z,93990.16
2024-03-02T22:08:45.968Z,93994.47
2024-03-02T22:11:13.924Z,93991.84
2024-03-02T22:13:41.715Z,93977.69
2024-03-02T22:16:09.520Z,93991.13
2024-03-02T22:18:38.720Z,93981.75
2024-03-02T22:21:06.646Z,93979.09
2024-03-02T22:23:34.578Z,93985.56
2024-03-02T22:26:02.314Z,93994.66
2024-03-02T22:28:30.189Z,93985.31
2024-03-02T22:30:58.053Z,93987.72
2024-03-02T22:33:26.163Z,93988.78
2024-03-02T22:35:57.571Z,93984.00
2024-03-02T22:38:25.812Z,93985.63
2024-03-02T22:40:53.951Z,93985.34
2024-03-02T22:43:23.935Z,93984.84
2024-03-02T22:45:51.701Z,93983.78
2024-03-02T22:48:19.505Z,93975.22
2024-03-02T22:50:47.665Z,93984.06
2024-03-02T22:53:16.824Z,93979.75
2024-03-02T22:55:44.591Z,93986.72
2024-03-02T22:58:12.468Z,93984.59
2024-03-02T23:00:49.235Z,93993.41
2024-03-02T23:03:18.975Z,93987.81
2024-03-02T23:05:46.886Z,93989.41
2024-03-02T23:08:18.044Z,93992.09
2024-03-02T23:10:46.502Z,93990.25
2024-03-02T23:13:14.884Z,93987.84
2024-03-02T23:15:42.721Z,93986.50
2024-03-02T23:18:10.528Z,93987.28
2024-03-02T23:20:38.281Z,93989.97
2024-03-02T23:23:06.916Z,93990.78
2024-03-02T23:25:36.343Z,93985.97
2024-03-02T23:28:04.752Z,93991.59
2024-03-02T23:30:33.230Z,93983.00
2024-03-02T23:33:01.087Z,93979.31
2024-03-02T23:35:28.977Z,93985.44
2024-03-02T23:37:56.732Z,93979.31
2024-03-02T23:40:53.381Z,93985.44
2024-03-02T23:43:22.576Z,93975.28
2024-03-02T23:45:50.361Z,93976.59
2024-03-02T23:48:18.287Z,93978.22
2024-03-02T23:50:46.034Z,93983.03
2024-03-02T23:53:13.828Z,93976.06
2024-03-02T23:55:47.756Z,93971.00
2024-03-02T23:58:20.374Z,93976.31
